sim
Sign-in with your pilot id or email,
or register
Callsign
Passwort

Schedule Details

Flight Number: EWG1916 (2)
Departure: Munich Airport (EDDM) at 13:55
Arrival: Dusseldorf International Airport (EDDL) at 15:15
Route: Eurowings Passenger Schedule. Enter filed route here before submitting Pirep.

Weather Information
Getting current METAR information for EDDM 250920Z 28009KT 250V320 9999 -RA FEW015 BKN048 10/07 Q1002 NOSIG
Getting current METAR information for EDDL 250920Z 18015KT 9999 FEW027 BKN048 12/06 Q0997 TEMPO 20015G25KT

Schedule Frequency

Route Map